Time;durP1;ratioP1;P1;durP2;ratioP2;P2;SDS_P1;SDS_P2;PMS_P1;PMS_P2;Temp;Humidity;BMP_temperature;BMP_pressure;BME280_temperature;BME280_humidity;BME280_pressure;Samples;Min_cycle;Max_cycle;Signal;HPM_P1;HPM_P2
2022/08/02 00:01:52;;;;;;;1.83;1.73;;;;;;;19.46;52.30;64016.03;5015709;28;20258;-76
2022/08/02 00:04:20;;;;;;;1.65;1.45;;;;;;;19.44;52.01;64010.84;5004941;28;20217;-75
2022/08/02 00:06:47;;;;;;;1.30;1.30;;;;;;;19.46;51.67;64016.03;5023614;28;20241;-76
2022/08/02 00:09:15;;;;;;;2.05;1.95;;;;;;;19.60;51.76;64027.00;5015224;28;20198;-74
2022/08/02 00:11:42;;;;;;;1.90;1.80;;;;;;;19.65;51.38;64029.63;5024123;28;20248;-76
2022/08/02 00:14:09;;;;;;;3.45;1.75;;;;;;;19.74;50.87;64041.59;5024239;28;20233;-75
2022/08/02 00:16:36;;;;;;;2.10;1.90;;;;;;;19.82;50.95;64052.53;5024160;28;20437;-76
2022/08/02 00:19:03;;;;;;;2.00;1.90;;;;;;;19.85;50.85;64053.06;5022426;28;20202;-75
2022/08/02 00:21:31;;;;;;;1.92;1.80;;;;;;;19.91;50.89;64054.69;5024638;28;20205;-76
2022/08/02 00:23:58;;;;;;;1.80;1.70;;;;;;;19.97;51.34;64063.00;5024362;28;20210;-75
2022/08/02 00:26:25;;;;;;;1.80;1.70;;;;;;;19.98;51.41;64061.47;5014654;28;20305;-75
2022/08/02 00:28:52;;;;;;;2.67;2.47;;;;;;;20.01;51.16;64075.47;5019216;28;20424;-76
2022/08/02 00:31:19;;;;;;;2.30;2.10;;;;;;;20.04;50.95;64073.41;5012669;28;20225;-75
2022/08/02 00:33:46;;;;;;;2.50;2.30;;;;;;;20.00;51.46;64066.16;5004130;28;20643;-75
2022/08/02 00:36:13;;;;;;;6.97;2.17;;;;;;;20.05;51.26;64076.53;5006204;28;20276;-75
2022/08/02 00:38:41;;;;;;;1.90;1.80;;;;;;;20.00;51.18;64066.16;5013528;28;20242;-75
2022/08/02 00:41:13;;;;;;;2.42;1.92;;;;;;;19.99;51.04;64070.78;5004192;28;20530;-75
2022/08/02 00:43:40;;;;;;;1.77;1.67;;;;;;;20.03;50.56;64074.97;5004202;28;20258;-75
2022/08/02 00:46:07;;;;;;;3.75;1.70;;;;;;;20.02;50.50;64068.75;5012799;28;20456;-76
2022/08/02 00:48:33;;;;;;;2.33;1.55;;;;;;;20.01;49.92;64072.34;5023631;28;20573;-75
2022/08/02 00:51:00;;;;;;;1.98;1.88;;;;;;;20.08;50.10;64077.06;5005827;28;20211;-75
2022/08/02 00:53:27;;;;;;;2.05;1.95;;;;;;;20.08;49.78;64077.06;5004320;28;20288;-76
2022/08/02 00:55:55;;;;;;;1.70;1.60;;;;;;;20.12;49.29;64081.25;5017849;28;20244;-75
2022/08/02 00:58:23;;;;;;;2.40;1.60;;;;;;;20.10;49.23;64081.75;5023388;28;20249;-74
2022/08/02 01:00:49;;;;;;;2.28;1.42;;;;;;;20.06;49.35;64074.97;5023144;28;20467;-74
2022/08/02 01:03:16;;;;;;;1.90;1.70;;;;;;;20.03;48.68;64072.38;5013995;28;20270;-74
2022/08/02 01:05:44;;;;;;;1.63;1.52;;;;;;;20.06;48.65;64077.56;5023451;28;20244;-74
2022/08/02 01:08:11;;;;;;;1.77;1.67;;;;;;;19.95;49.22;64066.09;5023448;28;20272;-74
2022/08/02 01:10:38;;;;;;;2.28;1.65;;;;;;;19.94;49.52;64067.63;5023056;28;20252;-75
2022/08/02 01:13:06;;;;;;;1.85;1.75;;;;;;;19.86;50.89;64056.72;5021826;28;20221;-74
2022/08/02 01:15:38;;;;;;;1.70;1.60;;;;;;;19.81;50.98;64049.41;5023418;28;20261;-75
2022/08/02 01:18:12;;;;;;;1.80;1.80;;;;;;;19.75;51.45;64040.06;5018433;28;20236;-76
2022/08/02 01:21:13;;;;;;;2.17;2.08;;;;;;;19.68;51.68;64035.88;5018393;28;20229;-74
2022/08/02 01:23:57;;;;;;;3.67;2.00;;;;;;;19.64;52.54;64031.19;5021269;28;20272;-75
2022/08/02 01:26:37;;;;;;;1.85;1.75;;;;;;;19.47;54.56;64017.06;5011139;28;20210;-75
2022/08/02 01:29:10;;;;;;;3.90;2.00;;;;;;;19.33;55.29;63999.34;5003732;28;20225;-75
2022/08/02 01:31:44;;;;;;;1.88;1.77;;;;;;;19.18;57.02;63986.81;5014545;28;20384;-75
2022/08/02 01:34:16;;;;;;;3.60;1.65;;;;;;;19.08;57.31;63970.69;5023044;28;20204;-75
2022/08/02 01:36:48;;;;;;;5.93;2.20;;;;;;;18.91;58.76;63955.56;5022688;28;20252;-76
2022/08/02 01:39:19;;;;;;;2.30;2.10;;;;;;;18.80;60.36;63942.03;5006299;28;20203;-75
2022/08/02 01:41:48;;;;;;;2.08;1.98;;;;;;;18.53;62.63;63913.38;5020718;28;20268;-74
2022/08/02 01:44:18;;;;;;;2.45;2.25;;;;;;;18.25;65.14;63890.38;5022695;28;20237;-74
2022/08/02 01:46:46;;;;;;;2.50;2.33;;;;;;;18.18;65.30;63880.50;5022911;28;20210;-76
2022/08/02 01:49:19;;;;;;;2.17;1.88;;;;;;;18.08;66.52;63872.66;5021035;28;20658;-74
2022/08/02 01:54:34;;;;;;;4.40;2.25;;;;;;;17.94;68.13;63858.06;5017913;28;20265;-75
2022/08/02 01:57:04;;;;;;;2.25;2.15;;;;;;;17.83;69.74;63838.88;5003246;28;20463;-74
2022/08/02 01:59:33;;;;;;;1.95;1.85;;;;;;;17.73;69.92;63830.53;5021158;28;20204;-74
2022/08/02 02:02:02;;;;;;;2.70;2.28;;;;;;;17.65;72.10;63824.78;5022595;28;20222;-73
2022/08/02 02:04:32;;;;;;;2.20;1.90;;;;;;;17.41;74.21;63799.75;5002760;28;20222;-75
2022/08/02 02:07:00;;;;;;;2.00;1.90;;;;;;;17.08;76.67;63766.44;5010413;28;20560;-76
2022/08/02 02:09:30;;;;;;;5.88;2.85;;;;;;;17.00;77.73;63758.13;5021817;28;20194;-74
2022/08/02 02:12:00;;;;;;;2.17;2.08;;;;;;;16.87;78.97;63744.59;5022721;28;20565;-74
2022/08/02 02:14:29;;;;;;;2.40;2.30;;;;;;;16.81;79.61;63740.91;5021455;28;20284;-75
2022/08/02 02:16:59;;;;;;;2.50;2.35;;;;;;;16.79;80.29;63738.31;5014732;28;20226;-75
2022/08/02 02:19:28;;;;;;;2.10;2.00;;;;;;;16.73;80.53;63732.59;5022266;28;20248;-75
2022/08/02 02:21:55;;;;;;;2.90;2.70;;;;;;;16.71;79.67;63730.50;5022679;28;20223;-76
2022/08/02 02:24:22;;;;;;;2.33;2.22;;;;;;;16.72;79.57;63731.53;5017800;28;20406;-76
2022/08/02 02:26:50;;;;;;;2.00;1.90;;;;;;;16.64;80.92;63722.69;5008663;28;20223;-75
2022/08/02 02:29:20;;;;;;;2.75;2.58;;;;;;;16.56;83.05;63709.75;5002979;28;20214;-73
2022/08/02 02:31:50;;;;;;;2.33;2.13;;;;;;;16.44;82.84;63699.84;5007206;28;20265;-74
2022/08/02 02:34:26;;;;;;;2.45;2.35;;;;;;;16.42;83.22;63694.66;5010055;28;20399;-75
2022/08/02 02:36:53;;;;;;;2.17;2.08;;;;;;;16.41;83.79;63698.75;5023137;28;20430;-74
2022/08/02 02:39:24;;;;;;;2.28;2.17;;;;;;;16.42;82.98;63695.19;5023721;28;20209;-74
2022/08/02 02:41:54;;;;;;;5.18;2.47;;;;;;;16.45;83.01;63692.63;5023131;28;20281;-74
2022/08/02 02:44:22;;;;;;;3.17;2.38;;;;;;;16.43;83.18;63698.78;5010662;28;20203;-74
2022/08/02 02:46:52;;;;;;;2.60;2.47;;;;;;;16.41;83.81;63701.84;5002727;28;20294;-74
2022/08/02 02:49:22;;;;;;;4.82;2.53;;;;;;;16.39;83.49;63692.06;5002844;28;20226;-75
2022/08/02 02:51:50;;;;;;;2.22;2.13;;;;;;;16.41;82.32;63701.84;5009088;28;20254;-74
2022/08/02 02:54:18;;;;;;;2.15;2.05;;;;;;;16.41;83.25;63699.25;5021609;28;20254;-75
2022/08/02 02:56:47;;;;;;;3.50;2.92;;;;;;;16.41;80.77;63693.63;5006355;28;20202;-75
2022/08/02 02:59:15;;;;;;;3.13;2.58;;;;;;;16.42;81.75;63694.66;5006740;28;20239;-75
2022/08/02 03:01:42;;;;;;;2.42;2.05;;;;;;;16.39;83.71;63699.78;5012633;28;20197;-75
2022/08/02 03:04:11;;;;;;;2.67;2.58;;;;;;;16.42;83.15;63694.66;5009730;28;20214;-75
2022/08/02 03:06:41;;;;;;;2.22;2.13;;;;;;;16.38;82.80;63696.16;5005835;28;20269;-75
2022/08/02 03:09:08;;;;;;;2.42;2.25;;;;;;;16.36;81.93;63688.41;5005444;28;20242;-74
2022/08/02 03:11:36;;;;;;;2.28;2.17;;;;;;;16.40;81.41;63700.81;5019026;28;20236;-75
2022/08/02 03:14:05;;;;;;;2.25;2.15;;;;;;;16.38;80.27;63690.47;5008486;28;20384;-75
2022/08/02 03:16:32;;;;;;;2.83;2.35;;;;;;;16.43;83.54;63698.28;5016174;28;20280;-75
2022/08/02 03:19:02;;;;;;;20.73;14.80;;;;;;;16.37;84.79;63694.59;5018695;28;20194;-74
2022/08/02 03:21:29;;;;;;;3.58;3.38;;;;;;;16.40;83.48;63695.66;5005929;28;20217;-75
2022/08/02 03:23:58;;;;;;;2.58;2.47;;;;;;;16.47;83.42;63702.44;5018788;28;20445;-75
2022/08/02 03:26:25;;;;;;;4.25;2.38;;;;;;;16.43;83.42;63698.78;5014149;28;20278;-75
2022/08/02 03:28:51;;;;;;;3.25;2.85;;;;;;;16.40;84.87;63695.13;5013512;28;20233;-75
2022/08/02 03:31:18;;;;;;;2.65;2.50;;;;;;;16.41;84.15;63693.63;5014566;28;20480;-74
2022/08/02 03:33:46;;;;;;;2.47;2.38;;;;;;;16.38;85.29;63687.91;5005166;28;20227;-76
2022/08/02 03:36:17;;;;;;;5.38;3.45;;;;;;;16.42;84.55;63695.19;5005151;28;20295;-75
2022/08/02 03:38:46;;;;;;;3.15;2.50;;;;;;;16.46;83.09;63703.97;5018376;28;20347;-75
2022/08/02 03:41:16;;;;;;;2.63;2.45;;;;;;;16.51;82.43;63706.59;5016150;28;20202;-75
2022/08/02 03:43:45;;;;;;;16.42;12.13;;;;;;;16.59;80.92;63709.78;5005410;28;20233;-74
2022/08/02 03:46:14;;;;;;;6.43;3.55;;;;;;;16.64;80.86;63717.56;5004994;28;20202;-75
2022/08/02 03:48:42;;;;;;;2.25;2.15;;;;;;;16.70;79.53;63729.47;5023919;28;20237;-74
2022/08/02 03:51:09;;;;;;;2.70;2.50;;;;;;;16.75;80.33;63729.00;5024233;28;20494;-75
2022/08/02 03:53:36;;;;;;;1.98;1.88;;;;;;;16.74;85.38;63731.06;5024851;28;20253;-74
2022/08/02 03:56:04;;;;;;;2.33;2.05;;;;;;;16.57;86.08;63712.84;5009958;28;20241;-76
2022/08/02 03:58:33;;;;;;;2.30;2.20;;;;;;;16.60;86.23;63713.41;5024358;28;20276;-76
2022/08/02 04:01:00;;;;;;;2.95;2.75;;;;;;;16.67;85.14;63720.69;5024692;28;20210;-75
2022/08/02 04:03:27;;;;;;;2.63;2.42;;;;;;;16.69;85.35;63720.72;5009776;28;20254;-75
2022/08/02 04:05:54;;;;;;;2.80;2.60;;;;;;;16.70;87.86;63723.81;5016441;28;20214;-76
2022/08/02 04:08:21;;;;;;;2.63;2.50;;;;;;;16.76;88.01;63730.56;5024213;28;20596;-74
2022/08/02 04:13:36;;;;;;;4.28;3.10;;;;;;;16.93;85.27;63748.25;5022437;28;20260;-74
2022/08/02 04:16:08;;;;;;;2.58;2.42;;;;;;;17.05;83.13;63762.81;5004452;28;20218;-74
2022/08/02 04:18:40;;;;;;;2.70;2.55;;;;;;;17.11;82.65;63769.06;5007437;28;20297;-75
2022/08/02 04:21:12;;;;;;;2.65;2.45;;;;;;;17.22;82.48;63778.44;5004279;28;20253;-74
2022/08/02 04:23:41;;;;;;;2.60;2.47;;;;;;;17.18;80.81;63778.91;5012534;28;20518;-75
2022/08/02 04:26:10;;;;;;;3.03;2.83;;;;;;;17.06;82.67;63758.69;5022393;28;20433;-74
2022/08/02 04:28:40;;;;;;;2.90;2.53;;;;;;;16.93;81.00;63747.72;5023722;28;20288;-75
2022/08/02 04:31:08;;;;;;;2.65;2.55;;;;;;;17.06;79.23;63761.28;5014814;28;20202;-75
2022/08/02 04:33:36;;;;;;;3.83;2.83;;;;;;;17.13;80.04;63766.50;5018076;28;20293;-74
2022/08/02 04:36:04;;;;;;;3.50;2.28;;;;;;;17.28;78.90;63784.16;5014554;28;20398;-75
2022/08/02 04:38:32;;;;;;;3.20;2.67;;;;;;;17.55;77.45;63811.78;5004154;28;20581;-75
2022/08/02 04:40:58;;;;;;;3.25;2.95;;;;;;;17.69;76.79;63826.88;5004640;28;20245;-74
2022/08/02 04:43:25;;;;;;;2.78;2.58;;;;;;;17.88;73.96;63846.66;5023637;28;20315;-75
2022/08/02 04:45:55;;;;;;;2.80;2.60;;;;;;;17.85;71.68;63843.53;5024210;28;20213;-75
2022/08/02 04:48:22;;;;;;;2.45;2.22;;;;;;;18.00;71.76;63858.66;5024315;28;20241;-75
2022/08/02 04:50:49;;;;;;;2.40;2.20;;;;;;;18.10;70.82;63866.50;5018682;28;20440;-76
2022/08/02 04:53:17;;;;;;;3.30;3.00;;;;;;;18.33;68.77;63893.03;5016034;28;20268;-75
2022/08/02 04:55:44;;;;;;;3.35;2.45;;;;;;;18.39;71.59;63896.69;5018888;28;20370;-74
2022/08/02 04:58:11;;;;;;;2.35;2.25;;;;;;;18.50;72.77;63912.81;5011977;28;20230;-74
2022/08/02 05:00:39;;;;;;;2.38;2.28;;;;;;;18.52;73.09;63912.34;5015540;28;20198;-75
2022/08/02 05:03:07;;;;;;;4.40;2.60;;;;;;;18.50;73.27;63910.25;5008540;28;20590;-75
2022/08/02 05:05:34;;;;;;;2.70;2.50;;;;;;;18.64;72.59;63922.75;5023194;28;20507;-75
2022/08/02 05:08:02;;;;;;;2.95;2.75;;;;;;;18.67;71.44;63925.91;5014154;28;20305;-74
2022/08/02 05:10:29;;;;;;;2.47;2.28;;;;;;;18.67;71.78;63928.50;5021383;28;20228;-75
2022/08/02 05:12:55;;;;;;;5.90;3.08;;;;;;;18.78;69.87;63939.41;5022980;28;20561;-76
2022/08/02 05:15:22;;;;;;;5.78;3.42;;;;;;;18.93;69.07;63958.16;5023456;28;20213;-75
2022/08/02 05:17:49;;;;;;;3.75;3.35;;;;;;;19.04;70.32;63967.03;5020953;28;20218;-75
2022/08/02 05:20:18;;;;;;;3.80;3.38;;;;;;;19.03;69.16;63968.06;5021337;28;20205;-75
2022/08/02 05:22:46;;;;;;;13.27;3.25;;;;;;;19.02;70.14;63964.97;5023332;28;20416;-74
2022/08/02 05:25:13;;;;;;;3.10;2.83;;;;;;;19.05;70.91;63968.06;5023026;28;20351;-76
2022/08/02 05:27:40;;;;;;;3.63;2.95;;;;;;;19.13;69.29;63976.44;5015007;28;20221;-75
2022/08/02 05:30:08;;;;;;;7.53;3.53;;;;;;;19.26;68.24;63989.97;5017116;28;20250;-75
2022/08/02 05:32:35;;;;;;;5.28;3.20;;;;;;;19.34;67.98;64000.41;5010112;28;20452;-76
2022/08/02 05:35:03;;;;;;;4.47;3.80;;;;;;;19.45;68.57;64007.22;5003676;28;20207;-76
2022/08/02 05:37:31;;;;;;;3.10;2.83;;;;;;;19.49;68.05;64010.88;5020184;28;20213;-75
2022/08/02 05:39:58;;;;;;;5.57;4.07;;;;;;;19.46;69.34;64012.91;5023432;28;20214;-74
2022/08/02 05:42:25;;;;;;;11.15;3.90;;;;;;;19.43;68.10;64010.31;5023111;28;20226;-75
2022/08/02 05:44:52;;;;;;;3.97;3.50;;;;;;;19.61;66.35;64025.44;5021277;28;20202;-74
2022/08/02 05:47:19;;;;;;;3.90;3.17;;;;;;;19.57;67.22;64023.88;5023019;28;20233;-75
2022/08/02 05:49:46;;;;;;;5.07;3.35;;;;;;;19.69;65.48;64038.97;5023934;28;20257;-75
2022/08/02 05:52:17;;;;;;;5.70;3.60;;;;;;;19.81;65.79;64046.84;5023574;28;20225;-75
2022/08/02 05:54:54;;;;;;;7.60;3.95;;;;;;;20.06;63.48;64072.94;5020714;28;20543;-75
2022/08/02 05:57:29;;;;;;;5.15;3.58;;;;;;;20.07;64.09;64076.53;5022881;28;20244;-75
2022/08/02 06:00:06;;;;;;;3.55;3.35;;;;;;;20.36;61.34;64106.31;5021795;28;20322;-75
2022/08/02 06:02:46;;;;;;;3.50;2.78;;;;;;;20.29;59.50;64099.53;5007615;28;20252;-74
2022/08/02 06:05:16;;;;;;;4.05;2.88;;;;;;;20.46;58.56;64117.28;5003441;28;20214;-74
2022/08/02 06:07:45;;;;;;;3.78;2.63;;;;;;;20.54;57.26;64122.50;5004239;28;20231;-75
2022/08/02 06:10:14;;;;;;;4.53;2.42;;;;;;;20.72;56.93;64145.97;5006252;28;20323;-76
2022/08/02 06:12:48;;;;;;;3.75;2.13;;;;;;;20.80;52.70;64154.31;5013806;28;20241;-76
2022/08/02 06:15:17;;;;;;;5.82;2.50;;;;;;;20.94;52.79;64164.28;5024296;28;20204;-74
2022/08/02 06:17:44;;;;;;;2.67;1.90;;;;;;;21.10;51.91;64183.59;5022779;28;20236;-74
2022/08/02 06:20:12;;;;;;;2.25;2.13;;;;;;;21.21;51.86;64197.66;5004444;28;20210;-75
2022/08/02 06:22:42;;;;;;;1.88;1.60;;;;;;;21.18;50.73;64186.75;5017606;28;20682;-75
2022/08/02 06:25:10;;;;;;;2.55;2.35;;;;;;;21.01;51.11;64174.19;5012210;28;20207;-74
2022/08/02 06:27:40;;;;;;;2.13;1.98;;;;;;;20.96;51.77;64165.84;5022139;28;20262;-75
2022/08/02 06:30:09;;;;;;;1.98;1.80;;;;;;;21.20;50.79;64196.63;5024171;28;20273;-75
2022/08/02 06:32:36;;;;;;;1.67;1.60;;;;;;;21.23;50.01;64199.75;5007333;28;20226;-75
2022/08/02 06:35:05;;;;;;;1.20;1.20;;;;;;;21.06;49.32;64176.28;5006807;28;20401;-74
2022/08/02 06:37:38;;;;;;;1.60;1.50;;;;;;;21.05;50.23;64180.97;5015499;28;20222;-74
2022/08/02 06:40:14;;;;;;;3.03;1.77;;;;;;;21.29;50.19;64202.91;5017312;28;20209;-73
2022/08/02 06:42:49;;;;;;;1.70;1.60;;;;;;;21.57;49.97;64232.16;5026267;28;20296;-74
2022/08/02 06:45:17;;;;;;;1.52;1.42;;;;;;;21.65;48.83;64240.50;5026155;28;20268;-75
2022/08/02 06:47:44;;;;;;;5.38;1.90;;;;;;;21.34;49.27;64208.66;5013551;28;20299;-73
2022/08/02 06:50:12;;;;;;;1.85;1.70;;;;;;;21.30;49.76;64198.75;5024774;28;20233;-75
2022/08/02 06:52:39;;;;;;;2.35;1.60;;;;;;;21.35;48.93;64211.75;5027282;28;20272;-74
2022/08/02 06:55:07;;;;;;;1.98;1.88;;;;;;;21.38;50.26;64215.41;5017004;28;20214;-75
2022/08/02 06:57:34;;;;;;;1.10;1.10;;;;;;;21.29;49.94;64200.84;5021259;28;20285;-75
2022/08/02 07:00:08;;;;;;;1.40;1.40;;;;;;;21.47;49.84;64224.28;5025876;28;20503;-76
2022/08/02 07:02:36;;;;;;;1.40;1.40;;;;;;;21.67;50.44;64245.72;5024143;28;20237;-74
2022/08/02 07:05:04;;;;;;;1.30;1.30;;;;;;;21.80;48.92;64253.59;5013253;28;20226;-75
2022/08/02 07:07:31;;;;;;;1.15;1.15;;;;;;;21.83;48.54;64256.75;5021493;28;20309;-75
2022/08/02 07:09:58;;;;;;;1.33;1.33;;;;;;;21.81;49.14;64256.72;5025268;28;20626;-75
2022/08/02 07:12:25;;;;;;;1.55;1.45;;;;;;;21.90;50.17;64266.13;5013560;28;20227;-74
2022/08/02 07:14:52;;;;;;;1.67;1.52;;;;;;;21.41;50.21;64210.78;5006440;28;20207;-74
2022/08/02 07:17:20;;;;;;;2.08;1.38;;;;;;;21.71;49.36;64247.31;5024067;28;20470;-74
2022/08/02 07:19:47;;;;;;;1.27;1.27;;;;;;;21.97;49.86;64276.56;5013549;28;20253;-73
2022/08/02 07:22:13;;;;;;;1.67;1.67;;;;;;;21.99;49.80;64276.06;5013037;28;20230;-74
2022/08/02 07:24:40;;;;;;;1.95;1.30;;;;;;;22.17;49.70;64296.94;5024473;28;20236;-74
2022/08/02 07:27:07;;;;;;;1.27;1.27;;;;;;;22.18;48.44;64297.97;5012212;28;20590;-75
2022/08/02 07:29:34;;;;;;;1.20;1.20;;;;;;;21.70;49.56;64246.25;5005987;28;20238;-75
2022/08/02 07:32:01;;;;;;;1.20;1.20;;;;;;;21.84;50.64;64260.38;5016636;28;20386;-73
2022/08/02 07:34:32;;;;;;;1.15;1.15;;;;;;;22.04;50.02;64281.28;5014581;28;20549;-74
2022/08/02 07:36:59;;;;;;;2.00;1.85;;;;;;;22.27;49.15;64300.13;5026319;28;20410;-76
2022/08/02 07:39:26;;;;;;;1.15;1.15;;;;;;;22.28;49.35;64308.44;5026022;28;20393;-76
2022/08/02 07:41:53;;;;;;;1.42;1.33;;;;;;;22.33;49.03;64311.06;5007206;28;20249;-76
2022/08/02 07:44:20;;;;;;;1.58;1.55;;;;;;;22.09;49.42;64288.59;5015701;28;20342;-74
2022/08/02 07:46:50;;;;;;;3.00;1.75;;;;;;;22.19;49.33;64296.97;5015475;28;20410;-75
2022/08/02 07:49:18;;;;;;;1.42;1.35;;;;;;;22.48;48.82;64327.28;5008851;28;20249;-75
2022/08/02 07:51:47;;;;;;;1.25;1.25;;;;;;;22.57;48.48;64334.09;5011310;28;20245;-75
2022/08/02 07:54:14;;;;;;;1.58;1.42;;;;;;;22.82;47.97;64365.44;5007861;28;20257;-76
2022/08/02 07:56:41;;;;;;;3.47;1.70;;;;;;;22.60;48.73;64345.03;5016060;28;20416;-74
2022/08/02 07:59:09;;;;;;;1.23;1.13;;;;;;;22.18;47.93;64295.38;5006004;28;20274;-74
2022/08/02 08:01:37;;;;;;;1.60;1.30;;;;;;;22.18;49.34;64298.50;5010460;28;20202;-76
2022/08/02 08:04:04;;;;;;;1.45;1.35;;;;;;;22.50;49.04;64326.25;5022562;28;20252;-75
2022/08/02 08:06:31;;;;;;;1.50;1.40;;;;;;;22.60;48.65;64337.25;5014979;28;20503;-76
2022/08/02 08:08:59;;;;;;;3.17;2.45;;;;;;;22.84;47.25;64367.00;5020038;28;20236;-75
2022/08/02 08:11:26;;;;;;;1.75;1.65;;;;;;;22.79;47.99;64359.19;5017635;28;20267;-74
2022/08/02 08:13:53;;;;;;;1.45;1.38;;;;;;;23.02;47.93;64380.63;5023351;28;20230;-76
2022/08/02 08:16:20;;;;;;;4.00;1.42;;;;;;;22.98;48.24;64379.06;5005589;28;20210;-74
2022/08/02 08:18:47;;;;;;;2.30;1.10;;;;;;;22.93;48.46;64374.34;5020249;28;20218;-75
2022/08/02 08:21:14;;;;;;;0.80;0.80;;;;;;;22.82;47.36;64359.72;5024738;28;20229;-75
2022/08/02 08:23:41;;;;;;;4.05;0.82;;;;;;;23.11;47.86;64394.72;5016616;28;20222;-74
2022/08/02 08:26:11;;;;;;;1.00;1.00;;;;;;;23.19;46.42;64400.50;5028601;28;20205;-75
2022/08/02 08:28:38;;;;;;;1.42;1.42;;;;;;;23.32;46.52;64414.09;5023376;28;20231;-73
2022/08/02 08:31:05;;;;;;;4.43;1.25;;;;;;;23.47;46.35;64427.72;5017265;28;20230;-74
2022/08/02 08:33:32;;;;;;;1.10;1.10;;;;;;;23.69;45.95;64447.63;5014182;28;20602;-74
2022/08/02 08:35:59;;;;;;;1.10;1.10;;;;;;;23.42;46.41;64427.16;5017195;28;20203;-74
2022/08/02 08:38:27;;;;;;;1.02;1.02;;;;;;;23.70;45.00;64453.88;5018739;28;20286;-75
2022/08/02 08:40:54;;;;;;;1.33;1.33;;;;;;;23.59;45.25;64445.47;5015249;28;20218;-74
2022/08/02 08:43:22;;;;;;;1.13;1.00;;;;;;;23.57;45.94;64442.88;5016490;28;20285;-75
2022/08/02 08:45:50;;;;;;;1.15;1.15;;;;;;;23.77;45.48;64463.78;5024598;28;20357;-76
2022/08/02 08:48:18;;;;;;;1.40;1.30;;;;;;;23.90;46.36;64475.31;5019345;28;20222;-74
2022/08/02 08:50:49;;;;;;;3.28;1.67;;;;;;;24.00;46.03;64485.28;5024854;28;20243;-75
2022/08/02 08:53:18;;;;;;;1.05;1.05;;;;;;;24.27;45.07;64516.16;5020177;28;20225;-74
2022/08/02 08:55:45;;;;;;;1.77;1.67;;;;;;;24.30;44.44;64516.69;5020389;28;20198;-75
2022/08/02 08:58:13;;;;;;;1.70;1.60;;;;;;;24.52;43.78;64534.00;5017461;28;20229;-76
2022/08/02 09:00:41;;;;;;;1.80;1.70;;;;;;;24.63;43.32;64556.44;5019484;28;20195;-75
2022/08/02 09:03:09;;;;;;;2.45;1.60;;;;;;;24.65;44.40;64552.81;5024721;28;20252;-78
2022/08/02 09:05:37;;;;;;;0.90;0.90;;;;;;;24.20;43.97;64508.28;5011791;28;20230;-75
2022/08/02 09:08:05;;;;;;;3.97;1.10;;;;;;;24.32;43.25;64518.78;5012136;28;20221;-76
2022/08/02 09:10:40;;;;;;;2.50;1.38;;;;;;;24.35;44.18;64518.78;5024128;28;20233;-74
2022/08/02 09:13:11;;;;;;;0.95;0.95;;;;;;;23.96;45.32;64481.59;5024064;28;20229;-75
2022/08/02 09:15:42;;;;;;;1.63;1.20;;;;;;;24.20;44.49;64505.69;5010492;28;20198;-74
2022/08/02 09:18:09;;;;;;;1.13;1.13;;;;;;;24.29;42.91;64513.03;5020773;28;20428;-75
2022/08/02 09:20:53;;;;;;;1.13;1.08;;;;;;;24.26;43.74;64514.56;5020823;28;20268;-74
2022/08/02 09:23:21;;;;;;;1.40;1.00;;;;;;;24.34;43.91;64520.88;5023415;28;20321;-75
2022/08/02 09:25:58;;;;;;;1.10;1.10;;;;;;;24.48;43.29;64538.13;5009164;28;20198;-74
2022/08/02 09:28:30;;;;;;;2.90;1.83;;;;;;;24.84;44.17;64568.03;5015771;28;20230;-76
2022/08/02 09:31:04;;;;;;;1.58;1.33;;;;;;;25.08;43.54;64600.47;5023643;28;20241;-75
2022/08/02 09:33:32;;;;;;;3.58;1.45;;;;;;;25.18;42.88;64613.03;5022104;28;20230;-77
2022/08/02 09:36:04;;;;;;;1.95;1.52;;;;;;;25.46;41.63;64635.06;5023689;28;20425;-74
2022/08/02 09:38:32;;;;;;;1.23;1.23;;;;;;;25.73;40.83;64665.47;5012663;28;20526;-74
2022/08/02 09:40:59;;;;;;;1.58;1.20;;;;;;;25.64;41.62;64653.41;5006094;28;20526;-75
2022/08/02 09:43:37;;;;;;;1.73;1.63;;;;;;;25.76;40.29;64671.75;5016613;28;20214;-77
2022/08/02 09:46:14;;;;;;;1.10;1.10;;;;;;;25.64;40.16;64661.78;5015614;28;20249;-75
2022/08/02 09:48:51;;;;;;;3.70;1.10;;;;;;;25.64;40.02;64656.56;5013836;28;20411;-75
2022/08/02 09:51:20;;;;;;;0.90;0.90;;;;;;;25.53;39.91;64645.03;5009241;28;20248;-74
2022/08/02 09:53:50;;;;;;;1.08;1.08;;;;;;;25.37;40.53;64625.13;5018921;28;20218;-75
2022/08/02 09:56:18;;;;;;;1.95;0.95;;;;;;;25.51;39.80;64645.53;5014180;28;20207;-75
2022/08/02 09:58:45;;;;;;;0.68;0.68;;;;;;;25.41;39.70;64629.84;5005865;28;20463;-73
2022/08/02 10:01:14;;;;;;;2.92;0.80;;;;;;;25.18;39.76;64610.94;5005768;28;20404;-74
2022/08/02 10:03:58;;;;;;;1.95;1.13;;;;;;;25.44;39.94;64632.47;5013880;28;20244;-75
2022/08/02 10:06:26;;;;;;;1.20;1.20;;;;;;;25.59;39.62;64648.19;5007489;28;20206;-76
2022/08/02 10:08:53;;;;;;;1.00;1.00;;;;;;;25.60;39.36;64652.34;5007257;28;20486;-75
2022/08/02 10:11:21;;;;;;;2.80;1.15;;;;;;;25.57;39.43;64646.63;5007213;28;20277;-73
2022/08/02 10:13:49;;;;;;;0.77;0.77;;;;;;;25.68;40.05;64658.13;5009310;28;20226;-75
2022/08/02 10:16:18;;;;;;;2.08;1.30;;;;;;;25.61;41.28;64653.41;5017013;28;20206;-74
2022/08/02 10:18:45;;;;;;;3.25;0.90;;;;;;;25.55;41.26;64647.13;5007341;28;20230;-74
2022/08/02 10:21:18;;;;;;;1.02;1.02;;;;;;;25.95;41.27;64689.06;5019848;28;20381;-75
2022/08/02 10:23:48;;;;;;;1.75;0.90;;;;;;;26.16;40.18;64713.69;5007215;28;20234;-74
2022/08/02 10:26:19;;;;;;;1.73;1.00;;;;;;;26.39;40.24;64734.16;5010487;28;20425;-76
2022/08/02 10:28:48;;;;;;;1.25;1.25;;;;;;;26.15;40.14;64712.09;5013522;28;20249;-73
2022/08/02 10:31:20;;;;;;;1.27;1.27;;;;;;;26.08;40.75;64707.38;5012829;28;20227;-75
2022/08/02 10:33:49;;;;;;;2.00;1.80;;;;;;;26.23;39.64;64714.75;5021122;28;20241;-74
2022/08/02 10:36:16;;;;;;;1.05;1.05;;;;;;;26.47;39.20;64742.53;5007019;28;20209;-74
2022/08/02 10:38:45;;;;;;;0.90;0.90;;;;;;;26.90;37.70;64787.66;5019148;28;20246;-74
2022/08/02 10:41:12;;;;;;;1.15;1.05;;;;;;;27.22;37.53;64821.19;5014816;28;20249;-74
2022/08/02 10:43:49;;;;;;;0.73;0.73;;;;;;;27.37;36.83;64833.84;5006932;28;20246;-75
2022/08/02 10:46:32;;;;;;;1.20;1.10;;;;;;;27.54;37.55;64859.50;5006377;28;20203;-76
2022/08/02 10:49:11;;;;;;;1.52;1.00;;;;;;;27.12;37.17;64815.94;5024089;28;20202;-74
2022/08/02 10:51:58;;;;;;;3.33;1.70;;;;;;;26.17;38.46;64716.81;5010624;28;20256;-74
2022/08/02 10:54:27;;;;;;;1.23;1.23;;;;;;;26.20;39.19;64715.25;5010625;28;20385;-74
2022/08/02 10:56:56;;;;;;;1.85;0.95;;;;;;;26.42;37.96;64739.91;5013715;28;20219;-74
2022/08/02 10:59:27;;;;;;;1.95;0.88;;;;;;;26.48;38.27;64744.09;5006892;28;20230;-73
2022/08/02 11:02:01;;;;;;;1.00;1.00;;;;;;;26.57;38.69;64753.00;5011728;28;20272;-74
2022/08/02 11:04:32;;;;;;;1.77;1.30;;;;;;;26.69;38.95;64763.53;5025718;28;20206;-74
2022/08/02 11:07:14;;;;;;;1.67;1.30;;;;;;;26.57;38.51;64755.63;5025866;28;20226;-75
2022/08/02 11:09:42;;;;;;;1.10;1.00;;;;;;;26.80;38.70;64779.78;5012832;28;20213;-75
2022/08/02 11:12:10;;;;;;;1.55;1.45;;;;;;;26.95;38.99;64793.41;5024966;28;20222;-75
2022/08/02 11:14:39;;;;;;;1.65;1.33;;;;;;;27.03;38.56;64803.88;5005340;28;20215;-74
2022/08/02 11:17:12;;;;;;;1.00;1.00;;;;;;;27.39;37.67;64841.69;5006841;28;20274;-74
2022/08/02 11:20:15;;;;;;;1.20;1.20;;;;;;;27.17;37.68;64815.97;5006348;28;20214;-73
2022/08/02 11:22:43;;;;;;;2.45;0.90;;;;;;;26.66;39.10;64762.44;5007291;28;20238;-74
2022/08/02 11:25:33;;;;;;;0.93;0.93;;;;;;;26.84;39.99;64781.34;5025638;28;20273;-75
2022/08/02 11:28:08;;;;;;;1.85;1.02;;;;;;;27.17;38.23;64819.09;5016196;28;20222;-74
2022/08/02 11:30:35;;;;;;;1.20;1.10;;;;;;;27.34;38.16;64838.53;5024881;28;20285;-74
2022/08/02 11:33:04;;;;;;;1.08;1.05;;;;;;;27.73;37.19;64876.84;5014476;28;20274;-75
2022/08/02 11:35:35;;;;;;;1.05;1.05;;;;;;;28.16;36.62;64916.75;5010061;28;20230;-74
2022/08/02 11:38:17;;;;;;;1.20;1.20;;;;;;;28.55;35.42;64960.34;5005814;28;20433;-73
2022/08/02 11:40:45;;;;;;;1.00;1.00;;;;;;;28.50;35.45;64957.69;5017340;28;20356;-75
2022/08/02 11:43:22;;;;;;;1.00;1.00;;;;;;;28.67;35.12;64977.66;5019780;28;20218;-73
2022/08/02 11:45:52;;;;;;;1.42;1.00;;;;;;;28.83;36.02;64989.75;5025465;28;20509;-74
2022/08/02 11:48:35;;;;;;;3.40;1.10;;;;;;;28.30;36.68;64934.59;5024191;28;20285;-73
2022/08/02 11:51:09;;;;;;;1.02;0.98;;;;;;;28.41;35.04;64945.63;5014241;28;20261;-74